createdAt,value
2019-03-13T00:01:03.722Z,85.47
2019-03-13T00:03:32.152Z,85.75
2019-03-13T00:06:00.605Z,85.07
2019-03-13T00:08:29.076Z,84.81
2019-03-13T00:10:57.637Z,84.83
2019-03-13T00:13:26.123Z,84.02
2019-03-13T00:15:54.672Z,84.06
2019-03-13T00:18:23.097Z,83.77
2019-03-13T00:20:51.609Z,83.34
2019-03-13T00:23:19.997Z,82.60
2019-03-13T00:25:48.427Z,82.16
2019-03-13T00:28:16.958Z,81.72
2019-03-13T00:30:45.357Z,81.54
2019-03-13T00:33:13.847Z,81.26
2019-03-13T00:35:42.244Z,81.45
2019-03-13T00:38:10.675Z,80.98
2019-03-13T00:40:39.074Z,81.17
2019-03-13T00:43:07.468Z,80.85
2019-03-13T00:45:35.875Z,80.45
2019-03-13T00:48:04.431Z,80.88
2019-03-13T00:50:33.380Z,81.25
2019-03-13T00:53:01.836Z,80.87
2019-03-13T00:55:30.251Z,81.36
2019-03-13T00:57:58.721Z,81.30
2019-03-13T01:00:28.824Z,81.19
2019-03-13T01:02:57.238Z,81.20
2019-03-13T01:05:42.085Z,81.04
2019-03-13T01:08:10.485Z,80.76
2019-03-13T01:10:38.910Z,80.76
2019-03-13T01:13:07.441Z,80.59
2019-03-13T01:15:35.826Z,81.15
2019-03-13T01:18:04.356Z,80.97
2019-03-13T01:20:32.770Z,80.57
2019-03-13T01:23:01.225Z,80.83
2019-03-13T01:25:29.647Z,80.93
2019-03-13T01:27:58.051Z,80.92
2019-03-13T01:30:28.143Z,80.88
2019-03-13T01:32:58.218Z,81.30
2019-03-13T01:35:28.315Z,81.52
2019-03-13T01:37:56.723Z,81.03
2019-03-13T01:40:25.174Z,81.08
2019-03-13T01:42:53.611Z,81.62
2019-03-13T01:45:22.082Z,81.30
2019-03-13T01:47:50.482Z,81.57
2019-03-13T01:50:18.958Z,81.21
2019-03-13T01:52:47.411Z,81.28
2019-03-13T01:55:15.820Z,81.20
2019-03-13T01:57:44.226Z,81.31
2019-03-13T02:00:14.552Z,80.91
2019-03-13T02:02:42.950Z,81.02
2019-03-13T02:05:11.612Z,81.19
2019-03-13T02:07:40.011Z,80.73
2019-03-13T02:10:10.913Z,81.20
2019-03-13T02:12:39.279Z,81.43
2019-03-13T02:15:12.630Z,81.95
2019-03-13T02:17:41.055Z,82.02
2019-03-13T02:20:10.888Z,82.24
2019-03-13T02:22:39.677Z,82.09
2019-03-13T02:25:12.999Z,81.73
2019-03-13T02:27:41.418Z,81.97
2019-03-13T02:30:18.355Z,81.73
2019-03-13T02:32:47.743Z,81.64
2019-03-13T02:35:16.248Z,81.74
2019-03-13T02:37:44.791Z,81.40
2019-03-13T02:40:16.766Z,81.29
2019-03-13T02:42:45.245Z,80.83
2019-03-13T02:45:14.782Z,79.82
2019-03-13T02:47:43.274Z,79.92
2019-03-13T02:50:13.924Z,79.66
2019-03-13T02:52:42.367Z,79.65
2019-03-13T02:55:11.425Z,80.10
2019-03-13T02:57:39.878Z,79.68
2019-03-13T03:00:15.249Z,79.74
2019-03-13T03:02:50.870Z,79.82
2019-03-13T03:05:19.324Z,79.22
2019-03-13T03:07:47.783Z,79.11
2019-03-13T03:10:16.269Z,78.68
2019-03-13T03:12:44.818Z,78.12
2019-03-13T03:15:15.879Z,77.87
2019-03-13T03:17:44.420Z,77.65
2019-03-13T03:20:18.117Z,77.17
2019-03-13T03:22:46.556Z,77.50
2019-03-13T03:25:16.499Z,77.29
2019-03-13T03:27:45.000Z,77.01
2019-03-13T03:30:23.729Z,77.38
2019-03-13T03:32:52.464Z,77.50
2019-03-13T03:35:21.210Z,77.71
2019-03-13T03:37:49.618Z,77.80
2019-03-13T03:40:22.410Z,77.79
2019-03-13T03:42:49.564Z,77.83
2019-03-13T03:45:18.683Z,77.83
2019-03-13T03:47:47.232Z,77.45
2019-03-13T03:50:16.910Z,77.62
2019-03-13T03:52:45.636Z,77.02
2019-03-13T03:55:15.767Z,76.91
2019-03-13T03:57:44.257Z,76.96
2019-03-13T04:00:18.129Z,77.05
2019-03-13T04:02:46.606Z,76.63
2019-03-13T04:05:15.100Z,76.35
2019-03-13T04:07:43.558Z,76.76
2019-03-13T04:10:14.086Z,77.14
2019-03-13T04:12:42.643Z,76.62
2019-03-13T04:15:15.452Z,76.14
2019-03-13T04:17:44.134Z,76.34
2019-03-13T04:20:14.752Z,75.49
2019-03-13T04:22:43.403Z,75.56
2019-03-13T04:25:26.712Z,75.31
2019-03-13T04:27:55.482Z,74.72
2019-03-13T04:30:23.893Z,75.17
2019-03-13T04:32:52.275Z,75.16
2019-03-13T04:35:20.703Z,75.18
2019-03-13T04:37:49.106Z,74.78
2019-03-13T04:40:17.509Z,74.50
2019-03-13T04:42:45.921Z,74.75
2019-03-13T04:45:14.407Z,74.51
2019-03-13T04:47:42.878Z,74.56
2019-03-13T04:50:12.752Z,74.55
2019-03-13T04:52:41.243Z,74.02
2019-03-13T04:55:11.585Z,74.64
2019-03-13T04:57:40.004Z,73.77
2019-03-13T05:00:14.016Z,73.95
2019-03-13T05:02:42.417Z,73.87
2019-03-13T05:05:30.478Z,73.71
2019-03-13T05:07:58.912Z,73.17
2019-03-13T05:10:27.307Z,73.27
2019-03-13T05:12:55.916Z,72.77
2019-03-13T05:15:24.297Z,72.89
2019-03-13T05:17:52.685Z,72.84
2019-03-13T05:20:21.116Z,72.72
2019-03-13T05:22:49.515Z,72.75
2019-03-13T05:25:19.172Z,72.85
2019-03-13T05:27:47.915Z,72.61
2019-03-13T05:30:16.455Z,72.49
2019-03-13T05:32:44.867Z,72.78
2019-03-13T05:35:13.282Z,72.77
2019-03-13T05:37:41.770Z,72.57
2019-03-13T05:40:11.963Z,72.96
2019-03-13T05:42:40.453Z,72.89
2019-03-13T05:45:09.583Z,71.93
2019-03-13T05:47:38.016Z,72.58
2019-03-13T05:50:09.450Z,72.96
2019-03-13T05:52:37.853Z,72.75
2019-03-13T05:55:06.944Z,72.65
2019-03-13T05:57:35.364Z,72.51
2019-03-13T06:00:06.369Z,72.62
2019-03-13T06:02:34.765Z,73.11
2019-03-13T06:05:03.350Z,73.13
2019-03-13T06:07:31.787Z,72.52
2019-03-13T06:10:00.491Z,72.59
2019-03-13T06:12:28.965Z,72.12
2019-03-13T06:14:57.380Z,72.26
2019-03-13T06:17:25.802Z,72.60
2019-03-13T06:19:54.202Z,73.35
2019-03-13T06:22:22.597Z,72.45
2019-03-13T06:24:51.020Z,72.52
2019-03-13T06:27:19.479Z,72.68
2019-03-13T06:29:47.856Z,72.52
2019-03-13T06:32:16.409Z,72.46
2019-03-13T06:34:44.806Z,72.65
2019-03-13T06:37:13.217Z,73.22
2019-03-13T06:39:41.749Z,73.62
2019-03-13T06:42:10.174Z,74.68
2019-03-13T06:44:38.593Z,75.92
2019-03-13T06:47:07.034Z,75.83
2019-03-13T06:49:35.429Z,75.65
2019-03-13T06:52:03.921Z,76.02
2019-03-13T06:54:32.352Z,75.80
2019-03-13T06:57:00.767Z,75.49
2019-03-13T06:59:36.990Z,75.93
2019-03-13T07:02:09.797Z,75.50
2019-03-13T07:04:48.594Z,76.22
2019-03-13T07:07:21.301Z,75.88
2019-03-13T07:09:54.078Z,76.25
2019-03-13T07:12:26.776Z,76.21
2019-03-13T07:15:05.834Z,76.48
2019-03-13T07:17:35.977Z,76.50
2019-03-13T07:20:11.555Z,76.59
2019-03-13T07:22:47.378Z,77.25
2019-03-13T07:25:17.514Z,77.43
2019-03-13T07:27:56.616Z,78.18
2019-03-13T07:30:29.613Z,77.60
2019-03-13T07:33:02.402Z,78.04
2019-03-13T07:35:49.195Z,77.97
2019-03-13T07:38:24.991Z,78.21
2019-03-13T07:40:57.745Z,78.00
2019-03-13T07:43:42.818Z,77.99
2019-03-13T07:46:12.921Z,77.71
2019-03-13T07:48:42.932Z,76.92
2019-03-13T07:51:19.166Z,76.77
2019-03-13T07:53:55.238Z,76.87
2019-03-13T07:56:41.532Z,76.69
2019-03-13T07:59:23.608Z,76.40
2019-03-13T08:02:08.827Z,76.50
2019-03-13T08:04:47.918Z,76.90
2019-03-13T08:07:17.987Z,76.66
2019-03-13T08:10:04.278Z,76.25
2019-03-13T08:12:34.315Z,76.79
2019-03-13T08:15:04.445Z,77.83
2019-03-13T08:17:46.691Z,78.26
2019-03-13T08:20:32.950Z,78.56
2019-03-13T08:23:05.771Z,78.40
2019-03-13T08:25:47.897Z,78.11
2019-03-13T08:28:34.105Z,78.65
2019-03-13T08:31:04.309Z,79.98
2019-03-13T08:33:43.341Z,80.61
2019-03-13T08:36:25.578Z,81.57
2019-03-13T08:39:07.912Z,80.93
2019-03-13T08:41:53.478Z,81.04
2019-03-13T08:44:26.248Z,80.05
2019-03-13T08:47:12.918Z,80.43
2019-03-13T08:49:55.222Z,80.08
2019-03-13T08:52:28.289Z,79.11
2019-03-13T08:55:01.277Z,79.17
2019-03-13T08:57:40.049Z,79.20
2019-03-13T09:00:25.386Z,78.91
2019-03-13T09:02:55.450Z,80.04
2019-03-13T09:05:28.612Z,79.42
2019-03-13T09:08:07.407Z,78.96
2019-03-13T09:10:37.472Z,79.08
2019-03-13T09:13:13.468Z,78.92
2019-03-13T09:15:59.930Z,79.25
2019-03-13T09:18:30.011Z,78.70
2019-03-13T09:21:06.122Z,78.56
2019-03-13T09:23:39.435Z,78.74
2019-03-13T09:26:12.506Z,78.36
2019-03-13T09:28:54.895Z,78.23
2019-03-13T09:31:28.166Z,78.52
2019-03-13T09:34:04.441Z,78.91
2019-03-13T09:36:37.216Z,78.76
2019-03-13T09:39:10.917Z,78.98
2019-03-13T09:41:49.695Z,78.32
2019-03-13T09:44:35.012Z,78.52
2019-03-13T09:47:20.263Z,79.08
2019-03-13T09:49:50.311Z,80.28
2019-03-13T09:52:20.433Z,79.90
2019-03-13T09:54:56.454Z,81.00
2019-03-13T09:57:38.566Z,81.64
2019-03-13T10:00:14.011Z,83.69
2019-03-13T10:02:53.068Z,84.30
2019-03-13T10:05:29.140Z,84.87
2019-03-13T10:08:04.893Z,85.12
2019-03-13T10:10:44.126Z,85.10
2019-03-13T10:13:20.167Z,85.86
2019-03-13T10:15:50.271Z,87.00
2019-03-13T10:18:28.849Z,86.37
2019-03-13T10:20:58.935Z,85.26
2019-03-13T10:23:28.983Z,86.03
2019-03-13T10:26:04.876Z,86.56
2019-03-13T10:28:50.004Z,84.93
2019-03-13T10:31:20.323Z,85.70
2019-03-13T10:33:53.076Z,86.05
2019-03-13T10:36:23.257Z,85.79
2019-03-13T10:39:09.627Z,85.84
2019-03-13T10:41:49.002Z,85.43
2019-03-13T10:44:21.797Z,85.65
2019-03-13T10:46:51.852Z,85.11
2019-03-13T10:49:31.003Z,84.95
2019-03-13T10:52:16.133Z,84.48
2019-03-13T10:54:49.015Z,84.67
2019-03-13T10:57:19.056Z,83.49
2019-03-13T10:59:52.149Z,84.11
2019-03-13T11:02:34.170Z,84.18
2019-03-13T11:05:10.042Z,83.68
2019-03-13T11:07:46.085Z,83.07
2019-03-13T11:10:32.511Z,83.46
2019-03-13T11:13:02.545Z,83.69
2019-03-13T11:15:49.031Z,82.66
2019-03-13T11:18:19.077Z,82.30
2019-03-13T11:20:55.135Z,82.70
2019-03-13T11:23:27.698Z,82.94
2019-03-13T11:26:13.153Z,82.20
2019-03-13T11:28:45.963Z,82.18
2019-03-13T11:31:16.090Z,81.56
2019-03-13T11:33:55.363Z,81.09
2019-03-13T11:36:37.461Z,81.61
2019-03-13T11:39:08.749Z,81.68
2019-03-13T11:41:38.854Z,81.93
2019-03-13T11:44:11.681Z,81.83
2019-03-13T11:46:56.733Z,81.68
2019-03-13T11:49:26.868Z,81.69
2019-03-13T11:52:02.722Z,81.77
2019-03-13T11:54:49.128Z,81.84
2019-03-13T11:57:21.823Z,82.00
2019-03-13T11:59:54.434Z,81.70
2019-03-13T12:02:42.610Z,81.19
2019-03-13T12:05:29.886Z,80.63
2019-03-13T12:08:02.505Z,80.97
2019-03-13T12:10:32.632Z,80.62
2019-03-13T12:13:02.841Z,80.71
2019-03-13T12:15:36.056Z,80.12
2019-03-13T12:18:12.428Z,80.51
2019-03-13T12:20:45.031Z,80.54
2019-03-13T12:23:15.159Z,81.07
2019-03-13T12:25:47.642Z,80.63
2019-03-13T12:28:23.428Z,80.74
2019-03-13T12:31:09.818Z,80.89
2019-03-13T12:33:39.851Z,81.93
2019-03-13T12:36:12.922Z,84.88
2019-03-13T12:39:00.805Z,86.18
2019-03-13T12:41:42.891Z,87.10
2019-03-13T12:44:13.003Z,88.27
2019-03-13T12:46:46.359Z,88.56
2019-03-13T12:49:33.002Z,89.76
2019-03-13T12:52:05.777Z,90.09
2019-03-13T12:54:35.814Z,90.32
2019-03-13T12:57:18.050Z,91.54
2019-03-13T12:59:50.790Z,91.89
2019-03-13T13:02:35.919Z,90.92
2019-03-13T13:05:13.833Z,91.63
2019-03-13T13:08:00.031Z,90.98
2019-03-13T13:10:38.879Z,91.49
2019-03-13T13:13:26.474Z,91.42
2019-03-13T13:16:12.692Z,91.80
2019-03-13T13:18:51.723Z,91.70
2019-03-13T13:21:20.280Z,91.89
2019-03-13T13:23:48.755Z,91.83
2019-03-13T13:26:17.547Z,91.50
2019-03-13T13:28:45.971Z,91.84
2019-03-13T13:31:14.493Z,91.28
2019-03-13T13:33:42.915Z,92.23
2019-03-13T13:36:11.449Z,91.79
2019-03-13T13:38:39.871Z,92.22
2019-03-13T13:41:08.340Z,92.61
2019-03-13T13:43:36.750Z,91.98
2019-03-13T13:46:20.462Z,92.14
2019-03-13T13:48:48.864Z,91.96
2019-03-13T13:51:17.310Z,91.41
2019-03-13T13:53:45.693Z,91.62
2019-03-13T13:56:14.180Z,90.90
2019-03-13T13:58:42.576Z,91.21
2019-03-13T14:01:10.994Z,91.38
2019-03-13T14:03:39.391Z,90.98
2019-03-13T14:06:07.809Z,91.19
2019-03-13T14:08:36.219Z,91.12
2019-03-13T14:11:04.682Z,90.58
2019-03-13T14:13:33.087Z,91.10
2019-03-13T14:16:01.560Z,90.72
2019-03-13T14:18:29.974Z,89.83
2019-03-13T14:20:58.449Z,90.55
2019-03-13T14:23:26.878Z,90.89
2019-03-13T14:25:55.364Z,91.24
2019-03-13T14:28:23.755Z,91.31
2019-03-13T14:30:52.270Z,91.02
2019-03-13T14:33:20.701Z,89.95
2019-03-13T14:35:49.144Z,89.30
2019-03-13T14:38:17.606Z,88.08
2019-03-13T14:40:46.146Z,88.91
2019-03-13T14:43:14.635Z,89.34
2019-03-13T14:45:43.057Z,90.17
2019-03-13T14:48:11.469Z,91.36
2019-03-13T14:50:39.931Z,92.07
2019-03-13T14:53:08.494Z,91.34
2019-03-13T14:55:36.922Z,90.10
2019-03-13T14:58:05.358Z,90.82
2019-03-13T15:00:33.856Z,90.48
2019-03-13T15:03:02.318Z,91.21
2019-03-13T15:05:30.743Z,91.15
2019-03-13T15:07:59.221Z,91.40
2019-03-13T15:10:27.653Z,92.11
2019-03-13T15:12:56.136Z,92.42
2019-03-13T15:15:24.832Z,92.79
2019-03-13T15:17:53.721Z,93.15
2019-03-13T15:20:29.678Z,92.92
2019-03-13T15:22:58.067Z,92.37
2019-03-13T15:25:26.688Z,91.78
2019-03-13T15:27:55.213Z,92.32
2019-03-13T15:30:33.545Z,92.23
2019-03-13T15:33:01.997Z,92.39
2019-03-13T15:35:30.426Z,93.05
2019-03-13T15:37:58.811Z,93.07
2019-03-13T15:40:27.265Z,93.46
2019-03-13T15:42:55.648Z,93.79
2019-03-13T15:45:26.594Z,94.06
2019-03-13T15:47:55.169Z,94.28
2019-03-13T15:50:23.738Z,94.28
2019-03-13T15:52:52.146Z,94.86
2019-03-13T15:55:21.201Z,95.22
2019-03-13T15:57:49.747Z,95.88
2019-03-13T16:00:28.370Z,95.23
2019-03-13T16:02:56.871Z,95.01
2019-03-13T16:05:25.414Z,94.73
2019-03-13T16:07:53.921Z,94.37
2019-03-13T16:10:22.691Z,92.82
2019-03-13T16:12:52.384Z,91.10
2019-03-13T16:15:27.263Z,91.17
2019-03-13T16:17:55.724Z,90.79
2019-03-13T16:20:24.206Z,90.73
2019-03-13T16:23:02.386Z,91.50
2019-03-13T16:25:30.957Z,90.78
2019-03-13T16:27:59.688Z,92.19
2019-03-13T16:30:42.774Z,93.33
2019-03-13T16:33:11.170Z,93.64
2019-03-13T16:35:39.725Z,94.18
2019-03-13T16:38:08.221Z,94.59
2019-03-13T16:40:36.782Z,94.51
2019-03-13T16:43:05.676Z,95.16
2019-03-13T16:45:34.164Z,95.32
2019-03-13T16:48:02.727Z,95.65
2019-03-13T16:50:33.280Z,96.00
2019-03-13T16:53:01.839Z,96.16
2019-03-13T16:55:30.312Z,96.05
2019-03-13T16:57:58.897Z,96.37
2019-03-13T17:00:28.754Z,96.51
2019-03-13T17:02:57.291Z,96.91
2019-03-13T17:05:25.835Z,97.41
2019-03-13T17:07:54.388Z,97.61
2019-03-13T17:10:23.937Z,97.70
2019-03-13T17:12:52.539Z,97.70
2019-03-13T17:15:22.454Z,97.84
2019-03-13T17:17:51.231Z,97.74
2019-03-13T17:20:26.396Z,97.78
2019-03-13T17:22:55.161Z,97.96
2019-03-13T17:25:23.885Z,98.06
2019-03-13T17:27:52.243Z,98.04
2019-03-13T17:30:22.617Z,98.10
2019-03-13T17:32:51.181Z,98.27
2019-03-13T17:35:19.832Z,98.06
2019-03-13T17:37:48.385Z,98.17
2019-03-13T17:40:22.377Z,98.22
2019-03-13T17:42:51.074Z,98.30
2019-03-13T17:45:25.001Z,98.54
2019-03-13T17:47:54.284Z,98.79
2019-03-13T17:50:24.703Z,98.96
2019-03-13T17:52:53.687Z,99.04
2019-03-13T17:55:23.684Z,98.98
2019-03-13T17:57:52.077Z,99.01
2019-03-13T18:00:42.232Z,98.98
2019-03-13T18:03:10.691Z,99.02
2019-03-13T18:05:39.346Z,99.13
2019-03-13T18:08:07.750Z,99.20
2019-03-13T18:10:36.210Z,99.37
2019-03-13T18:13:04.677Z,99.08
2019-03-13T18:15:33.265Z,98.62
2019-03-13T18:18:01.745Z,98.19
2019-03-13T18:20:30.243Z,97.88
2019-03-13T18:22:58.792Z,97.66
2019-03-13T18:25:27.603Z,97.74
2019-03-13T18:27:56.140Z,97.54
2019-03-13T18:30:29.363Z,97.21
2019-03-13T18:32:57.886Z,97.31
2019-03-13T18:35:26.421Z,97.50
2019-03-13T18:37:54.923Z,97.70
2019-03-13T18:40:26.906Z,97.84
2019-03-13T18:42:55.420Z,97.91
2019-03-13T18:45:31.774Z,98.05
2019-03-13T18:48:00.415Z,98.13
2019-03-13T18:50:29.137Z,98.34
2019-03-13T18:52:57.680Z,98.41
2019-03-13T18:55:27.630Z,98.49
2019-03-13T18:57:56.191Z,98.09
2019-03-13T19:00:33.209Z,97.73
2019-03-13T19:03:01.693Z,97.94
2019-03-13T19:05:34.684Z,97.52
2019-03-13T19:08:03.239Z,97.79
2019-03-13T19:10:32.840Z,97.72
2019-03-13T19:13:01.416Z,97.42
2019-03-13T19:15:30.370Z,96.60
2019-03-13T19:18:00.733Z,96.17
2019-03-13T19:20:31.105Z,95.99
2019-03-13T19:22:59.581Z,95.88
2019-03-13T19:25:28.126Z,96.36
2019-03-13T19:27:56.695Z,96.37
2019-03-13T19:30:37.728Z,96.53
2019-03-13T19:33:09.514Z,96.48
2019-03-13T19:35:37.909Z,96.59
2019-03-13T19:38:11.190Z,96.70
2019-03-13T19:40:39.898Z,96.69
2019-03-13T19:43:08.441Z,96.69
2019-03-13T19:45:44.728Z,96.55
2019-03-13T19:48:13.234Z,95.79
2019-03-13T19:50:41.730Z,95.70
2019-03-13T19:53:10.272Z,95.27
2019-03-13T19:55:38.819Z,95.18
2019-03-13T19:58:07.638Z,94.71
2019-03-13T20:00:36.190Z,94.29
2019-03-13T20:03:07.668Z,93.49
2019-03-13T20:05:45.327Z,93.30
2019-03-13T20:08:06.528Z,93.15
2019-03-13T20:10:35.055Z,92.27
2019-03-13T20:13:03.673Z,91.98
2019-03-13T20:15:34.604Z,91.33
2019-03-13T20:18:03.090Z,91.94
2019-03-13T20:20:31.613Z,91.94
2019-03-13T20:23:05.082Z,91.63
2019-03-13T20:25:33.667Z,91.66
2019-03-13T20:28:02.181Z,91.74
2019-03-13T20:30:30.762Z,92.19
2019-03-13T20:32:59.237Z,92.52
2019-03-13T20:35:27.743Z,92.85
2019-03-13T20:37:56.301Z,92.66
2019-03-13T20:40:28.310Z,93.09
2019-03-13T20:42:56.819Z,93.55
2019-03-13T20:45:29.256Z,93.88
2019-03-13T20:47:57.790Z,93.89
2019-03-13T20:50:36.650Z,94.17
2019-03-13T20:52:56.564Z,94.46
2019-03-13T20:55:25.228Z,94.52
2019-03-13T20:57:53.741Z,94.78
2019-03-13T21:00:26.199Z,94.70
2019-03-13T21:02:56.796Z,94.94
2019-03-13T21:05:25.582Z,94.92
2019-03-13T21:07:54.565Z,95.06
2019-03-13T21:10:23.102Z,95.28
2019-03-13T21:12:51.667Z,95.39
2019-03-13T21:15:24.584Z,95.56
2019-03-13T21:17:53.045Z,95.50
2019-03-13T21:20:21.697Z,95.32
2019-03-13T21:22:50.191Z,95.44
2019-03-13T21:25:25.688Z,95.21
2019-03-13T21:27:54.250Z,95.52
2019-03-13T21:30:29.264Z,95.47
2019-03-13T21:32:58.369Z,95.24
2019-03-13T21:35:26.904Z,94.83
2019-03-13T21:37:55.300Z,94.51
2019-03-13T21:40:26.058Z,94.54
2019-03-13T21:42:55.283Z,94.57
2019-03-13T21:45:24.449Z,94.15
2019-03-13T21:47:53.034Z,94.26
2019-03-13T21:50:21.603Z,94.16
2019-03-13T21:52:50.017Z,94.36
2019-03-13T21:55:19.109Z,94.16
2019-03-13T21:57:47.733Z,94.26
2019-03-13T22:00:21.734Z,94.24
2019-03-13T22:02:50.478Z,94.21
2019-03-13T22:05:25.692Z,94.21
2019-03-13T22:07:49.337Z,94.09
2019-03-13T22:10:19.302Z,94.30
2019-03-13T22:12:47.866Z,94.54
2019-03-13T22:15:20.697Z,94.52
2019-03-13T22:17:49.241Z,94.65
2019-03-13T22:20:18.917Z,95.10
2019-03-13T22:22:47.393Z,94.92
2019-03-13T22:25:17.307Z,95.00
2019-03-13T22:27:45.837Z,94.18
2019-03-13T22:30:24.396Z,94.15
2019-03-13T22:32:53.223Z,94.24
2019-03-13T22:35:21.714Z,94.25
2019-03-13T22:37:50.117Z,93.43
2019-03-13T22:40:19.503Z,93.26
2019-03-13T22:42:47.912Z,93.15
2019-03-13T22:45:20.633Z,93.19
2019-03-13T22:47:49.146Z,92.83
2019-03-13T22:50:22.673Z,92.65
2019-03-13T22:52:51.154Z,92.87
2019-03-13T22:55:19.843Z,92.10
2019-03-13T22:57:48.340Z,91.79
2019-03-13T23:00:53.040Z,91.42
2019-03-13T23:03:23.216Z,90.96
2019-03-13T23:05:51.765Z,91.09
2019-03-13T23:08:20.282Z,91.22
2019-03-13T23:10:48.966Z,91.17
2019-03-13T23:13:17.796Z,90.91
2019-03-13T23:15:46.677Z,91.08
2019-03-13T23:18:18.062Z,90.59
2019-03-13T23:20:45.429Z,90.72
2019-03-13T23:23:13.866Z,90.32
2019-03-13T23:25:42.252Z,90.07
2019-03-13T23:28:10.668Z,90.19
2019-03-13T23:30:39.079Z,90.44
2019-03-13T23:33:07.608Z,90.68
2019-03-13T23:35:36.106Z,90.73
2019-03-13T23:38:05.152Z,91.78
2019-03-13T23:40:33.700Z,92.96
2019-03-13T23:43:02.068Z,93.38
2019-03-13T23:45:30.506Z,94.06
2019-03-13T23:47:59.060Z,94.46
2019-03-13T23:50:27.470Z,94.78
2019-03-13T23:52:55.859Z,95.26
2019-03-13T23:55:24.347Z,95.35
2019-03-13T23:57:52.827Z,95.46
